sensor_id;sensor_type;location;lat;lon;timestamp;pressure;altitude;pressure_sealevel;temperature;humidity
64675;BME280;51090;51.512;11.332;2023-04-20T00:02:05;99674.66;;;8.39;100.00
64675;BME280;51090;51.512;11.332;2023-04-20T00:04:32;99666.56;;;8.41;100.00
64675;BME280;51090;51.512;11.332;2023-04-20T00:06:57;99669.88;;;8.43;100.00
64675;BME280;51090;51.512;11.332;2023-04-20T00:09:25;99665.06;;;8.46;100.00
64675;BME280;51090;51.512;11.332;2023-04-20T00:11:51;99664.25;;;8.46;100.00
64675;BME280;51090;51.512;11.332;2023-04-20T00:14:18;99669.34;;;8.47;100.00
64675;BME280;51090;51.512;11.332;2023-04-20T00:16:44;99662.59;;;8.45;100.00
64675;BME280;51090;51.512;11.332;2023-04-20T00:19:10;99672.50;;;8.51;100.00
64675;BME280;51090;51.512;11.332;2023-04-20T00:21:36;99665.56;;;8.50;100.00
64675;BME280;51090;51.512;11.332;2023-04-20T00:24:02;99614.50;;;8.17;100.00
64675;BME280;51090;51.512;11.332;2023-04-20T00:26:29;99668.38;;;8.48;100.00
64675;BME280;51090;51.512;11.332;2023-04-20T00:28:55;99638.78;;;8.28;100.00
64675;BME280;51090;51.512;11.332;2023-04-20T00:31:21;99647.38;;;8.39;100.00
64675;BME280;51090;51.512;11.332;2023-04-20T00:33:47;99659.47;;;8.41;100.00
64675;BME280;51090;51.512;11.332;2023-04-20T00:36:13;99652.66;;;8.39;100.00
64675;BME280;51090;51.512;11.332;2023-04-20T00:38:39;99649.91;;;8.40;100.00
64675;BME280;51090;51.512;11.332;2023-04-20T00:41:05;99653.16;;;8.42;100.00
64675;BME280;51090;51.512;11.332;2023-04-20T00:43:30;99645.91;;;8.44;100.00
64675;BME280;51090;51.512;11.332;2023-04-20T00:45:56;99652.34;;;8.42;100.00
64675;BME280;51090;51.512;11.332;2023-04-20T00:48:22;99643.09;;;8.38;100.00
64675;BME280;51090;51.512;11.332;2023-04-20T00:50:49;99650.88;;;8.39;100.00
64675;BME280;51090;51.512;11.332;2023-04-20T00:53:16;99650.53;;;8.42;100.00
64675;BME280;51090;51.512;11.332;2023-04-20T00:55:43;99642.44;;;8.44;100.00
64675;BME280;51090;51.512;11.332;2023-04-20T00:58:09;99640.97;;;8.41;100.00
64675;BME280;51090;51.512;11.332;2023-04-20T01:00:36;99648.06;;;8.49;100.00
64675;BME280;51090;51.512;11.332;2023-04-20T01:03:04;99634.84;;;8.41;100.00
64675;BME280;51090;51.512;11.332;2023-04-20T01:05:31;99649.06;;;8.48;100.00
64675;BME280;51090;51.512;11.332;2023-04-20T01:07:57;99644.94;;;8.45;100.00
64675;BME280;51090;51.512;11.332;2023-04-20T01:10:23;99636.13;;;8.37;100.00
64675;BME280;51090;51.512;11.332;2023-04-20T01:12:49;99634.66;;;8.34;100.00
64675;BME280;51090;51.512;11.332;2023-04-20T01:15:14;99632.50;;;8.29;100.00
64675;BME280;51090;51.512;11.332;2023-04-20T01:17:40;99634.66;;;8.26;100.00
64675;BME280;51090;51.512;11.332;2023-04-20T01:20:09;99629.03;;;8.29;100.00
64675;BME280;51090;51.512;11.332;2023-04-20T01:22:51;99618.81;;;8.26;100.00
64675;BME280;51090;51.512;11.332;2023-04-20T01:25:19;99611.88;;;8.25;100.00
64675;BME280;51090;51.512;11.332;2023-04-20T01:27:45;99617.81;;;8.27;100.00
64675;BME280;51090;51.512;11.332;2023-04-20T01:30:12;99608.09;;;8.27;100.00
64675;BME280;51090;51.512;11.332;2023-04-20T01:32:38;99615.50;;;8.32;100.00
64675;BME280;51090;51.512;11.332;2023-04-20T01:35:05;99616.81;;;8.36;100.00
64675;BME280;51090;51.512;11.332;2023-04-20T01:37:31;99617.81;;;8.35;100.00
64675;BME280;51090;51.512;11.332;2023-04-20T01:39:57;99611.69;;;8.35;100.00
64675;BME280;51090;51.512;11.332;2023-04-20T01:42:23;99615.00;;;8.37;100.00
64675;BME280;51090;51.512;11.332;2023-04-20T01:44:49;99609.72;;;8.37;100.00
64675;BME280;51090;51.512;11.332;2023-04-20T01:47:15;99610.53;;;8.37;100.00
64675;BME280;51090;51.512;11.332;2023-04-20T01:49:41;99594.53;;;8.31;100.00
64675;BME280;51090;51.512;11.332;2023-04-20T01:52:07;99605.78;;;8.41;100.00
64675;BME280;51090;51.512;11.332;2023-04-20T01:54:33;99605.25;;;8.37;100.00
64675;BME280;51090;51.512;11.332;2023-04-20T01:56:59;99601.13;;;8.35;100.00
64675;BME280;51090;51.512;11.332;2023-04-20T01:59:25;99599.97;;;8.37;100.00
64675;BME280;51090;51.512;11.332;2023-04-20T02:01:50;99608.75;;;8.38;100.00
64675;BME280;51090;51.512;11.332;2023-04-20T02:04:16;99615.34;;;8.42;100.00
64675;BME280;51090;51.512;11.332;2023-04-20T02:06:42;99604.78;;;8.42;100.00
64675;BME280;51090;51.512;11.332;2023-04-20T02:09:08;99595.53;;;8.38;100.00
64675;BME280;51090;51.512;11.332;2023-04-20T02:11:34;99602.31;;;8.48;100.00
64675;BME280;51090;51.512;11.332;2023-04-20T02:14:00;99600.50;;;8.41;100.00
64675;BME280;51090;51.512;11.332;2023-04-20T02:16:25;99604.97;;;8.40;100.00
64675;BME280;51090;51.512;11.332;2023-04-20T02:18:54;99600.16;;;8.36;100.00
64675;BME280;51090;51.512;11.332;2023-04-20T02:21:20;99601.97;;;8.35;100.00
64675;BME280;51090;51.512;11.332;2023-04-20T02:23:45;99594.19;;;8.34;100.00
64675;BME280;51090;51.512;11.332;2023-04-20T02:26:11;99581.16;;;8.24;100.00
64675;BME280;51090;51.512;11.332;2023-04-20T02:28:37;99608.75;;;8.38;100.00
64675;BME280;51090;51.512;11.332;2023-04-20T02:31:03;99595.69;;;8.28;100.00
64675;BME280;51090;51.512;11.332;2023-04-20T02:33:28;99609.56;;;8.30;100.00
64675;BME280;51090;51.512;11.332;2023-04-20T02:35:54;99606.59;;;8.25;100.00
64675;BME280;51090;51.512;11.332;2023-04-20T02:38:20;99610.88;;;8.34;100.00
64675;BME280;51090;51.512;11.332;2023-04-20T02:40:45;99606.41;;;8.35;100.00
64675;BME280;51090;51.512;11.332;2023-04-20T02:43:11;99595.50;;;8.21;100.00
64675;BME280;51090;51.512;11.332;2023-04-20T02:45:37;99602.13;;;8.25;100.00
64675;BME280;51090;51.512;11.332;2023-04-20T02:48:03;99607.06;;;8.28;100.00
64675;BME280;51090;51.512;11.332;2023-04-20T02:50:29;99596.53;;;8.20;100.00
64675;BME280;51090;51.512;11.332;2023-04-20T02:52:55;99606.41;;;8.26;100.00
64675;BME280;51090;51.512;11.332;2023-04-20T02:55:20;99607.06;;;8.28;100.00
64675;BME280;51090;51.512;11.332;2023-04-20T02:57:46;99613.69;;;8.33;100.00
64675;BME280;51090;51.512;11.332;2023-04-20T03:00:12;99605.78;;;8.33;100.00
64675;BME280;51090;51.512;11.332;2023-04-20T03:02:38;99601.13;;;8.26;100.00
64675;BME280;51090;51.512;11.332;2023-04-20T03:05:04;99597.66;;;8.26;100.00
64675;BME280;51090;51.512;11.332;2023-04-20T03:07:30;99607.41;;;8.25;100.00
64675;BME280;51090;51.512;11.332;2023-04-20T03:09:56;99598.16;;;8.21;100.00
64675;BME280;51090;51.512;11.332;2023-04-20T03:12:22;99607.56;;;8.24;100.00
64675;BME280;51090;51.512;11.332;2023-04-20T03:14:48;99598.34;;;8.20;100.00
64675;BME280;51090;51.512;11.332;2023-04-20T03:17:13;99580.00;;;8.10;100.00
64675;BME280;51090;51.512;11.332;2023-04-20T03:19:39;99602.94;;;8.26;100.00
64675;BME280;51090;51.512;11.332;2023-04-20T03:22:06;99597.34;;;8.29;100.00
64675;BME280;51090;51.512;11.332;2023-04-20T03:24:31;99605.44;;;8.36;100.00
64675;BME280;51090;51.512;11.332;2023-04-20T03:26:57;99601.47;;;8.32;100.00
64675;BME280;51090;51.512;11.332;2023-04-20T03:29:23;99610.06;;;8.34;100.00
64675;BME280;51090;51.512;11.332;2023-04-20T03:31:48;99604.59;;;8.27;100.00
64675;BME280;51090;51.512;11.332;2023-04-20T03:34:14;99603.78;;;8.26;100.00
64675;BME280;51090;51.512;11.332;2023-04-20T03:36:40;99617.31;;;8.32;100.00
64675;BME280;51090;51.512;11.332;2023-04-20T03:39:06;99595.50;;;8.21;100.00
64675;BME280;51090;51.512;11.332;2023-04-20T03:41:32;99610.88;;;8.26;100.00
64675;BME280;51090;51.512;11.332;2023-04-20T03:43:58;99611.69;;;8.26;100.00
64675;BME280;51090;51.512;11.332;2023-04-20T03:46:23;99609.41;;;8.23;100.00
64675;BME280;51090;51.512;11.332;2023-04-20T03:48:49;99599.81;;;8.22;100.00
64675;BME280;51090;51.512;11.332;2023-04-20T03:51:15;99603.63;;;8.20;100.00
64675;BME280;51090;51.512;11.332;2023-04-20T03:53:41;99611.84;;;8.17;100.00
64675;BME280;51090;51.512;11.332;2023-04-20T03:56:06;99593.84;;;8.04;100.00
64675;BME280;51090;51.512;11.332;2023-04-20T03:58:32;99589.25;;;7.90;100.00
64675;BME280;51090;51.512;11.332;2023-04-20T04:01:03;99606.91;;;8.05;100.00
64675;BME280;51090;51.512;11.332;2023-04-20T04:03:32;99609.69;;;8.04;100.00
64675;BME280;51090;51.512;11.332;2023-04-20T04:05:58;99604.41;;;8.04;100.00
64675;BME280;51090;51.512;11.332;2023-04-20T04:08:24;99619.78;;;8.08;100.00
64675;BME280;51090;51.512;11.332;2023-04-20T04:10:50;99614.00;;;8.05;100.00
64675;BME280;51090;51.512;11.332;2023-04-20T04:13:16;99607.09;;;8.12;100.00
64675;BME280;51090;51.512;11.332;2023-04-20T04:15:42;99607.56;;;8.07;100.00
64675;BME280;51090;51.512;11.332;2023-04-20T04:18:07;99615.03;;;8.12;100.00
64675;BME280;51090;51.512;11.332;2023-04-20T04:20:33;99612.69;;;8.09;100.00
64675;BME280;51090;51.512;11.332;2023-04-20T04:22:59;99600.13;;;8.03;100.00
64675;BME280;51090;51.512;11.332;2023-04-20T04:25:24;99618.97;;;8.16;100.00
64675;BME280;51090;51.512;11.332;2023-04-20T04:27:50;99615.50;;;8.16;100.00
64675;BME280;51090;51.512;11.332;2023-04-20T04:30:16;99620.63;;;8.17;100.00
64675;BME280;51090;51.512;11.332;2023-04-20T04:32:42;99623.91;;;8.19;100.00
64675;BME280;51090;51.512;11.332;2023-04-20T04:35:09;99626.56;;;8.19;100.00
64675;BME280;51090;51.512;11.332;2023-04-20T04:37:34;99624.91;;;8.18;100.00
64675;BME280;51090;51.512;11.332;2023-04-20T04:40:01;99631.53;;;8.22;100.00
64675;BME280;51090;51.512;11.332;2023-04-20T04:42:27;99630.53;;;8.23;100.00
64675;BME280;51090;51.512;11.332;2023-04-20T04:44:53;99629.19;;;8.19;100.00
64675;BME280;51090;51.512;11.332;2023-04-20T04:47:21;99628.38;;;8.27;100.00
64675;BME280;51090;51.512;11.332;2023-04-20T04:49:48;99620.63;;;8.25;100.00
64675;BME280;51090;51.512;11.332;2023-04-20T04:52:14;99628.22;;;8.28;100.00
64675;BME280;51090;51.512;11.332;2023-04-20T04:54:40;99625.41;;;8.30;100.00
64675;BME280;51090;51.512;11.332;2023-04-20T04:57:05;99631.00;;;8.27;100.00
64675;BME280;51090;51.512;11.332;2023-04-20T04:59:31;99631.03;;;8.35;100.00
64675;BME280;51090;51.512;11.332;2023-04-20T05:01:57;99625.56;;;8.37;100.00
64675;BME280;51090;51.512;11.332;2023-04-20T05:04:23;99623.28;;;8.42;100.00
64675;BME280;51090;51.512;11.332;2023-04-20T05:06:48;99631.03;;;8.52;100.00
64675;BME280;51090;51.512;11.332;2023-04-20T05:09:14;99641.13;;;8.56;100.00
64675;BME280;51090;51.512;11.332;2023-04-20T05:11:40;99623.28;;;8.50;100.00
64675;BME280;51090;51.512;11.332;2023-04-20T05:14:06;99612.38;;;8.45;100.00
64675;BME280;51090;51.512;11.332;2023-04-20T05:16:31;99623.78;;;8.45;100.00
64675;BME280;51090;51.512;11.332;2023-04-20T05:18:57;99637.81;;;8.54;100.00
64675;BME280;51090;51.512;11.332;2023-04-20T05:21:23;99638.47;;;8.56;100.00
64675;BME280;51090;51.512;11.332;2023-04-20T05:23:48;99645.56;;;8.64;100.00
64675;BME280;51090;51.512;11.332;2023-04-20T05:26:15;99660.94;;;8.68;100.00
64675;BME280;51090;51.512;11.332;2023-04-20T05:28:41;99658.59;;;8.65;100.00
64675;BME280;51090;51.512;11.332;2023-04-20T05:31:07;99638.16;;;8.51;100.00
64675;BME280;51090;51.512;11.332;2023-04-20T05:33:32;99655.31;;;8.55;100.00
64675;BME280;51090;51.512;11.332;2023-04-20T05:35:58;99654.00;;;8.51;100.00
64675;BME280;51090;51.512;11.332;2023-04-20T05:38:24;99658.16;;;8.54;100.00
64675;BME280;51090;51.512;11.332;2023-04-20T05:40:51;99667.56;;;8.56;100.00
64675;BME280;51090;51.512;11.332;2023-04-20T05:43:17;99664.72;;;8.58;100.00
64675;BME280;51090;51.512;11.332;2023-04-20T05:45:47;99653.00;;;8.52;100.00
64675;BME280;51090;51.512;11.332;2023-04-20T05:48:13;99671.84;;;8.65;100.00
64675;BME280;51090;51.512;11.332;2023-04-20T05:50:38;99669.38;;;8.64;100.00
64675;BME280;51090;51.512;11.332;2023-04-20T05:53:04;99674.16;;;8.68;100.00
64675;BME280;51090;51.512;11.332;2023-04-20T05:55:30;99680.41;;;8.76;100.00
64675;BME280;51090;51.512;11.332;2023-04-20T05:57:56;99684.88;;;8.91;100.00
64675;BME280;51090;51.512;11.332;2023-04-20T06:00:22;99681.88;;;9.03;100.00
64675;BME280;51090;51.512;11.332;2023-04-20T06:02:49;99681.19;;;9.17;100.00
64675;BME280;51090;51.512;11.332;2023-04-20T06:05:14;99676.34;;;9.29;100.00
64675;BME280;51090;51.512;11.332;2023-04-20T06:07:40;99692.00;;;9.47;100.00
64675;BME280;51090;51.512;11.332;2023-04-20T06:10:07;99674.94;;;9.49;100.00
64675;BME280;51090;51.512;11.332;2023-04-20T06:12:33;99683.34;;;9.53;100.00
64675;BME280;51090;51.512;11.332;2023-04-20T06:14:59;99672.69;;;9.38;100.00
64675;BME280;51090;51.512;11.332;2023-04-20T06:17:25;99685.06;;;9.37;100.00
64675;BME280;51090;51.512;11.332;2023-04-20T06:19:51;99678.28;;;9.35;100.00
64675;BME280;51090;51.512;11.332;2023-04-20T06:22:17;99683.06;;;9.40;100.00
64675;BME280;51090;51.512;11.332;2023-04-20T06:24:43;99684.81;;;9.55;100.00
64675;BME280;51090;51.512;11.332;2023-04-20T06:27:09;99684.56;;;9.73;100.00
64675;BME280;51090;51.512;11.332;2023-04-20T06:29:35;99693.06;;;10.00;100.00
64675;BME280;51090;51.512;11.332;2023-04-20T06:32:01;99699.56;;;10.20;100.00
64675;BME280;51090;51.512;11.332;2023-04-20T06:34:27;99694.06;;;10.30;100.00
64675;BME280;51090;51.512;11.332;2023-04-20T06:36:53;99679.97;;;10.30;100.00
64675;BME280;51090;51.512;11.332;2023-04-20T06:39:18;99708.72;;;10.41;100.00
64675;BME280;51090;51.512;11.332;2023-04-20T06:41:44;99711.25;;;10.34;100.00
64675;BME280;51090;51.512;11.332;2023-04-20T06:44:10;99707.97;;;10.24;100.00
64675;BME280;51090;51.512;11.332;2023-04-20T06:46:36;99710.38;;;10.11;100.00
64675;BME280;51090;51.512;11.332;2023-04-20T06:49:02;99698.38;;;10.00;100.00
64675;BME280;51090;51.512;11.332;2023-04-20T06:51:28;99702.88;;;9.91;100.00
64675;BME280;51090;51.512;11.332;2023-04-20T06:53:55;99710.50;;;9.86;100.00
64675;BME280;51090;51.512;11.332;2023-04-20T06:56:21;99707.38;;;9.82;100.00
64675;BME280;51090;51.512;11.332;2023-04-20T06:58:46;99702.25;;;9.89;100.00
64675;BME280;51090;51.512;11.332;2023-04-20T07:01:12;99697.25;;;9.94;100.00
64675;BME280;51090;51.512;11.332;2023-04-20T07:03:38;99693.38;;;10.05;100.00
64675;BME280;51090;51.512;11.332;2023-04-20T07:06:05;99702.56;;;10.17;100.00
64675;BME280;51090;51.512;11.332;2023-04-20T07:08:32;99715.09;;;10.23;100.00
64675;BME280;51090;51.512;11.332;2023-04-20T07:10:58;99709.22;;;10.13;100.00
64675;BME280;51090;51.512;11.332;2023-04-20T07:13:24;99694.75;;;9.93;100.00
64675;BME280;51090;51.512;11.332;2023-04-20T07:15:50;99705.34;;;9.93;100.00
64675;BME280;51090;51.512;11.332;2023-04-20T07:18:16;99707.84;;;9.86;100.00
64675;BME280;51090;51.512;11.332;2023-04-20T07:20:42;99696.84;;;9.74;100.00
64675;BME280;51090;51.512;11.332;2023-04-20T07:23:07;99699.00;;;9.71;100.00
64675;BME280;51090;51.512;11.332;2023-04-20T07:25:33;99684.66;;;9.57;100.00
64675;BME280;51090;51.512;11.332;2023-04-20T07:27:59;99705.00;;;9.65;100.00
64675;BME280;51090;51.512;11.332;2023-04-20T07:30:25;99698.72;;;9.57;100.00
64675;BME280;51090;51.512;11.332;2023-04-20T07:32:50;99705.06;;;9.48;100.00
64675;BME280;51090;51.512;11.332;2023-04-20T07:35:16;99712.47;;;9.53;100.00
64675;BME280;51090;51.512;11.332;2023-04-20T07:37:42;99718.75;;;9.60;100.00
64675;BME280;51090;51.512;11.332;2023-04-20T07:40:11;99728.00;;;9.64;100.00
64675;BME280;51090;51.512;11.332;2023-04-20T07:42:37;99719.25;;;9.64;100.00
64675;BME280;51090;51.512;11.332;2023-04-20T07:45:06;99717.88;;;9.68;100.00
64675;BME280;51090;51.512;11.332;2023-04-20T07:47:33;99722.16;;;9.77;100.00
64675;BME280;51090;51.512;11.332;2023-04-20T07:49:59;99725.94;;;9.82;100.00
64675;BME280;51090;51.512;11.332;2023-04-20T07:52:25;99723.91;;;9.93;100.00
64675;BME280;51090;51.512;11.332;2023-04-20T07:54:51;99726.34;;;10.02;100.00
64675;BME280;51090;51.512;11.332;2023-04-20T07:57:23;99728.72;;;10.20;100.00
64675;BME280;51090;51.512;11.332;2023-04-20T07:59:49;99727.28;;;10.41;100.00
64675;BME280;51090;51.512;11.332;2023-04-20T08:02:14;99727.44;;;10.62;100.00
64675;BME280;51090;51.512;11.332;2023-04-20T08:04:40;99715.41;;;10.75;100.00
64675;BME280;51090;51.512;11.332;2023-04-20T08:07:06;99728.66;;;10.98;100.00
64675;BME280;51090;51.512;11.332;2023-04-20T08:09:32;99726.19;;;11.11;100.00
64675;BME280;51090;51.512;11.332;2023-04-20T08:11:57;99712.66;;;11.21;100.00
64675;BME280;51090;51.512;11.332;2023-04-20T08:14:23;99727.75;;;11.50;100.00
64675;BME280;51090;51.512;11.332;2023-04-20T08:16:49;99721.41;;;11.66;100.00
64675;BME280;51090;51.512;11.332;2023-04-20T08:19:14;99711.16;;;11.77;99.60
64675;BME280;51090;51.512;11.332;2023-04-20T08:21:40;99714.19;;;11.89;97.58
64675;BME280;51090;51.512;11.332;2023-04-20T08:24:07;99713.25;;;11.97;96.42
64675;BME280;51090;51.512;11.332;2023-04-20T08:26:33;99698.16;;;11.97;94.79
64675;BME280;51090;51.512;11.332;2023-04-20T08:29:00;99711.88;;;12.23;93.50
64675;BME280;51090;51.512;11.332;2023-04-20T08:31:26;99700.91;;;12.26;93.14
64675;BME280;51090;51.512;11.332;2023-04-20T08:33:52;99708.47;;;12.50;91.26
64675;BME280;51090;51.512;11.332;2023-04-20T08:36:18;99709.00;;;12.89;93.25
64675;BME280;51090;51.512;11.332;2023-04-20T08:38:44;99709.88;;;13.24;88.26
64675;BME280;51090;51.512;11.332;2023-04-20T08:41:10;99722.66;;;13.35;84.41
64675;BME280;51090;51.512;11.332;2023-04-20T08:43:38;99710.56;;;13.33;82.90
64675;BME280;51090;51.512;11.332;2023-04-20T08:46:04;99714.16;;;13.46;82.91
64675;BME280;51090;51.512;11.332;2023-04-20T08:48:36;99709.88;;;13.52;77.88
64675;BME280;51090;51.512;11.332;2023-04-20T08:51:03;99718.50;;;13.61;78.75
64675;BME280;51090;51.512;11.332;2023-04-20T08:53:30;99730.63;;;13.63;77.35
64675;BME280;51090;51.512;11.332;2023-04-20T08:55:57;99710.06;;;13.50;77.13
64675;BME280;51090;51.512;11.332;2023-04-20T08:58:26;99730.84;;;13.68;75.87
64675;BME280;51090;51.512;11.332;2023-04-20T09:00:53;99722.88;;;13.75;76.73
64675;BME280;51090;51.512;11.332;2023-04-20T09:03:37;99725.44;;;13.97;72.67
64675;BME280;51090;51.512;11.332;2023-04-20T09:06:12;99728.34;;;14.15;73.86
64675;BME280;51090;51.512;11.332;2023-04-20T09:08:40;99730.78;;;14.10;71.19
64675;BME280;51090;51.512;11.332;2023-04-20T09:11:19;99745.19;;;14.22;73.26
64675;BME280;51090;51.512;11.332;2023-04-20T09:14:04;99737.44;;;14.41;67.60
64675;BME280;51090;51.512;11.332;2023-04-20T09:16:35;99732.53;;;14.51;68.44
64675;BME280;51090;51.512;11.332;2023-04-20T09:19:01;99733.59;;;14.63;70.17
64675;BME280;51090;51.512;11.332;2023-04-20T09:21:28;99729.31;;;14.62;66.02
64675;BME280;51090;51.512;11.332;2023-04-20T09:23:56;99733.00;;;14.74;67.96
64675;BME280;51090;51.512;11.332;2023-04-20T09:26:22;99735.28;;;14.91;70.65
64675;BME280;51090;51.512;11.332;2023-04-20T09:28:48;99722.94;;;14.83;68.42
64675;BME280;51090;51.512;11.332;2023-04-20T09:31:18;99748.22;;;14.94;65.69
64675;BME280;51090;51.512;11.332;2023-04-20T09:33:53;99741.66;;;15.03;67.98
64675;BME280;51090;51.512;11.332;2023-04-20T09:36:19;99743.28;;;15.11;67.24
64675;BME280;51090;51.512;11.332;2023-04-20T09:38:46;99729.91;;;15.17;66.33
64675;BME280;51090;51.512;11.332;2023-04-20T09:41:11;99740.78;;;15.22;65.32
64675;BME280;51090;51.512;11.332;2023-04-20T09:43:39;99712.88;;;15.18;64.70
64675;BME280;51090;51.512;11.332;2023-04-20T09:46:06;99728.06;;;15.11;64.20
64675;BME280;51090;51.512;11.332;2023-04-20T09:48:34;99728.91;;;15.18;64.67
64675;BME280;51090;51.512;11.332;2023-04-20T09:51:01;99719.41;;;15.29;64.22
64675;BME280;51090;51.512;11.332;2023-04-20T09:53:29;99729.88;;;15.44;61.32
64675;BME280;51090;51.512;11.332;2023-04-20T09:55:56;99734.19;;;15.45;63.24
64675;BME280;51090;51.512;11.332;2023-04-20T09:58:22;99735.56;;;15.67;62.78
64675;BME280;51090;51.512;11.332;2023-04-20T10:00:49;99737.03;;;15.70;61.69
64675;BME280;51090;51.512;11.332;2023-04-20T10:03:18;99743.56;;;15.74;59.31
64675;BME280;51090;51.512;11.332;2023-04-20T10:05:44;99732.69;;;15.76;62.17
64675;BME280;51090;51.512;11.332;2023-04-20T10:08:10;99738.41;;;15.86;61.18
64675;BME280;51090;51.512;11.332;2023-04-20T10:10:47;99730.00;;;15.76;58.62
64675;BME280;51090;51.512;11.332;2023-04-20T10:13:14;99728.34;;;15.81;60.17
64675;BME280;51090;51.512;11.332;2023-04-20T10:15:41;99730.84;;;15.70;58.69
64675;BME280;51090;51.512;11.332;2023-04-20T10:18:23;99731.31;;;15.46;56.41
64675;BME280;51090;51.512;11.332;2023-04-20T10:20:50;99722.66;;;15.38;60.04
64675;BME280;51090;51.512;11.332;2023-04-20T10:23:16;99732.16;;;15.34;59.42
64675;BME280;51090;51.512;11.332;2023-04-20T10:25:55;99732.28;;;15.59;59.11
64675;BME280;51090;51.512;11.332;2023-04-20T10:28:22;99739.47;;;15.78;59.90
64675;BME280;51090;51.512;11.332;2023-04-20T10:30:52;99735.94;;;15.84;56.08
64675;BME280;51090;51.512;11.332;2023-04-20T10:33:18;99749.28;;;15.91;57.96
64675;BME280;51090;51.512;11.332;2023-04-20T10:35:51;99742.31;;;15.77;57.39
64675;BME280;51090;51.512;11.332;2023-04-20T10:38:33;99729.81;;;15.71;55.09
64675;BME280;51090;51.512;11.332;2023-04-20T10:43:32;99732.44;;;15.77;58.46
64675;BME280;51090;51.512;11.332;2023-04-20T10:45:59;99709.63;;;15.68;58.02
64675;BME280;51090;51.512;11.332;2023-04-20T10:48:25;99718.47;;;15.68;57.74
64675;BME280;51090;51.512;11.332;2023-04-20T10:50:51;99711.47;;;15.81;58.15
64675;BME280;51090;51.512;11.332;2023-04-20T10:53:22;99709.28;;;16.03;57.19
64675;BME280;51090;51.512;11.332;2023-04-20T10:55:58;99711.25;;;16.21;55.01
64675;BME280;51090;51.512;11.332;2023-04-20T10:58:24;99708.19;;;16.49;58.13
64675;BME280;51090;51.512;11.332;2023-04-20T11:01:02;99707.63;;;16.72;54.43
64675;BME280;51090;51.512;11.332;2023-04-20T11:03:29;99691.19;;;16.68;55.45
64675;BME280;51090;51.512;11.332;2023-04-20T11:05:56;99697.94;;;16.78;54.19
64675;BME280;51090;51.512;11.332;2023-04-20T11:08:38;99707.19;;;16.75;53.10
64675;BME280;51090;51.512;11.332;2023-04-20T11:11:05;99715.00;;;16.83;54.14
64675;BME280;51090;51.512;11.332;2023-04-20T11:13:31;99698.56;;;16.73;54.50
64675;BME280;51090;51.512;11.332;2023-04-20T11:15:58;99707.56;;;16.85;54.13
64675;BME280;51090;51.512;11.332;2023-04-20T11:18:24;99707.19;;;16.75;52.71
64675;BME280;51090;51.512;11.332;2023-04-20T11:20:54;99699.31;;;16.55;52.74
64675;BME280;51090;51.512;11.332;2023-04-20T11:23:22;99691.44;;;16.28;53.46
64675;BME280;51090;51.512;11.332;2023-04-20T11:25:54;99698.13;;;16.19;55.25
64675;BME280;51090;51.512;11.332;2023-04-20T11:28:20;99695.56;;;16.31;56.68
64675;BME280;51090;51.512;11.332;2023-04-20T11:30:47;99686.69;;;16.37;56.87
64675;BME280;51090;51.512;11.332;2023-04-20T11:33:14;99683.72;;;16.45;56.13
64675;BME280;51090;51.512;11.332;2023-04-20T11:35:41;99681.31;;;16.37;54.25
64675;BME280;51090;51.512;11.332;2023-04-20T11:38:08;99675.72;;;16.14;55.36
64675;BME280;51090;51.512;11.332;2023-04-20T11:40:34;99685.03;;;16.04;56.32
64675;BME280;51090;51.512;11.332;2023-04-20T11:43:00;99682.41;;;15.91;56.86
64675;BME280;51090;51.512;11.332;2023-04-20T11:45:30;99651.31;;;15.52;56.67
64675;BME280;51090;51.512;11.332;2023-04-20T11:47:57;99672.28;;;15.55;57.39
64675;BME280;51090;51.512;11.332;2023-04-20T11:50:24;99673.50;;;15.52;57.93
64675;BME280;51090;51.512;11.332;2023-04-20T11:52:51;99665.69;;;15.51;58.38
64675;BME280;51090;51.512;11.332;2023-04-20T11:55:17;99672.84;;;15.63;58.68
64675;BME280;51090;51.512;11.332;2023-04-20T11:57:42;99651.03;;;15.66;59.00
64675;BME280;51090;51.512;11.332;2023-04-20T12:00:08;99654.75;;;15.72;59.32
64675;BME280;51090;51.512;11.332;2023-04-20T12:02:34;99655.34;;;15.74;58.56
64675;BME280;51090;51.512;11.332;2023-04-20T12:05:00;99649.34;;;15.85;59.13
64675;BME280;51090;51.512;11.332;2023-04-20T12:07:27;99648.19;;;16.06;58.18
64675;BME280;51090;51.512;11.332;2023-04-20T12:09:52;99656.19;;;16.38;59.17
64675;BME280;51090;51.512;11.332;2023-04-20T12:12:18;99657.91;;;16.58;57.44
64675;BME280;51090;51.512;11.332;2023-04-20T12:14:44;99640.25;;;16.75;56.61
64675;BME280;51090;51.512;11.332;2023-04-20T12:17:10;99654.66;;;16.74;56.34
64675;BME280;51090;51.512;11.332;2023-04-20T12:19:35;99655.66;;;16.29;55.34
64675;BME280;51090;51.512;11.332;2023-04-20T12:22:01;99646.22;;;16.20;56.83
64675;BME280;51090;51.512;11.332;2023-04-20T12:24:27;99638.25;;;16.14;57.79
64675;BME280;51090;51.512;11.332;2023-04-20T12:26:54;99651.88;;;16.37;57.83
64675;BME280;51090;51.512;11.332;2023-04-20T12:29:19;99636.78;;;16.49;57.46
64675;BME280;51090;51.512;11.332;2023-04-20T12:31:45;99645.22;;;16.71;56.57
64675;BME280;51090;51.512;11.332;2023-04-20T12:34:11;99645.00;;;16.73;54.85
64675;BME280;51090;51.512;11.332;2023-04-20T12:36:37;99637.25;;;16.65;55.87
64675;BME280;51090;51.512;11.332;2023-04-20T12:39:02;99633.38;;;16.61;56.16
64675;BME280;51090;51.512;11.332;2023-04-20T12:41:28;99640.50;;;16.67;56.50
64675;BME280;51090;51.512;11.332;2023-04-20T12:43:54;99642.16;;;16.68;55.94
64675;BME280;51090;51.512;11.332;2023-04-20T12:46:20;99625.44;;;16.47;56.25
64675;BME280;51090;51.512;11.332;2023-04-20T12:48:46;99631.72;;;16.35;56.45
64675;BME280;51090;51.512;11.332;2023-04-20T12:51:13;99633.94;;;16.13;56.70